sensor_id;sensor_type;location;lat;lon;timestamp;pressure;altitude;pressure_sealevel;temperature;humidity
72612;BME280;60655;52.182;4.474;2023-11-21T00:01:00;101006.03;;;8.84;100.00
72612;BME280;60655;52.182;4.474;2023-11-21T00:03:02;101000.97;;;8.89;100.00
72612;BME280;60655;52.182;4.474;2023-11-21T00:05:03;101002.38;;;8.98;100.00
72612;BME280;60655;52.182;4.474;2023-11-21T00:07:04;100993.63;;;8.91;100.00
72612;BME280;60655;52.182;4.474;2023-11-21T00:09:06;101008.91;;;8.95;100.00
72612;BME280;60655;52.182;4.474;2023-11-21T00:11:09;101008.09;;;8.88;100.00
72612;BME280;60655;52.182;4.474;2023-11-21T00:13:10;101008.31;;;9.00;100.00
72612;BME280;60655;52.182;4.474;2023-11-21T00:15:13;101000.97;;;8.89;100.00
72612;BME280;60655;52.182;4.474;2023-11-21T00:17:14;101001.78;;;8.89;100.00
72612;BME280;60655;52.182;4.474;2023-11-21T00:19:15;101006.25;;;8.95;100.00
72612;BME280;60655;52.182;4.474;2023-11-21T00:21:17;101006.25;;;8.89;100.00
72612;BME280;60655;52.182;4.474;2023-11-21T00:23:17;101007.50;;;8.93;100.00
72612;BME280;60655;52.182;4.474;2023-11-21T00:25:18;100999.13;;;8.96;100.00
72612;BME280;60655;52.182;4.474;2023-11-21T00:27:20;101004.00;;;8.99;100.00
72612;BME280;60655;52.182;4.474;2023-11-21T00:29:21;100996.69;;;9.07;100.00
72612;BME280;60655;52.182;4.474;2023-11-21T00:31:22;101005.47;;;9.14;100.00
72612;BME280;60655;52.182;4.474;2023-11-21T00:33:23;101000.19;;;9.21;100.00
72612;BME280;60655;52.182;4.474;2023-11-21T00:35:25;101004.06;;;9.19;100.00
72612;BME280;60655;52.182;4.474;2023-11-21T00:37:26;101008.53;;;9.11;100.00
72612;BME280;60655;52.182;4.474;2023-11-21T00:39:27;101010.59;;;9.16;100.00
72612;BME280;60655;52.182;4.474;2023-11-21T00:41:28;101010.97;;;9.13;100.00
72612;BME280;60655;52.182;4.474;2023-11-21T00:43:29;101011.19;;;9.18;100.00
72612;BME280;60655;52.182;4.474;2023-11-21T00:45:29;101014.25;;;9.28;100.00
72612;BME280;60655;52.182;4.474;2023-11-21T00:47:31;101015.06;;;9.16;100.00
72612;BME280;60655;52.182;4.474;2023-11-21T00:49:32;101023.78;;;9.03;100.00
72612;BME280;60655;52.182;4.474;2023-11-21T00:51:34;101024.22;;;8.93;100.00
72612;BME280;60655;52.182;4.474;2023-11-21T00:53:35;101029.50;;;8.93;100.00
72612;BME280;60655;52.182;4.474;2023-11-21T00:55:36;101017.44;;;8.84;100.00
72612;BME280;60655;52.182;4.474;2023-11-21T00:57:37;101026.66;;;9.01;100.00
72612;BME280;60655;52.182;4.474;2023-11-21T00:59:38;101014.44;;;8.94;100.00
72612;BME280;60655;52.182;4.474;2023-11-21T01:01:38;101022.78;;;8.91;100.00
72612;BME280;60655;52.182;4.474;2023-11-21T01:03:40;101014.81;;;8.97;100.00
72612;BME280;60655;52.182;4.474;2023-11-21T01:05:40;101035.00;;;8.98;100.00
72612;BME280;60655;52.182;4.474;2023-11-21T01:07:41;101029.72;;;9.05;100.00
72612;BME280;60655;52.182;4.474;2023-11-21T01:09:42;101039.06;;;9.01;100.00
72612;BME280;60655;52.182;4.474;2023-11-21T01:11:44;101038.66;;;8.97;100.00
72612;BME280;60655;52.182;4.474;2023-11-21T01:13:46;101037.66;;;8.92;100.00
72612;BME280;60655;52.182;4.474;2023-11-21T01:15:48;101044.16;;;8.89;100.00
72612;BME280;60655;52.182;4.474;2023-11-21T01:17:49;101045.63;;;9.05;100.00
72612;BME280;60655;52.182;4.474;2023-11-21T01:19:50;101049.91;;;9.12;100.00
72612;BME280;60655;52.182;4.474;2023-11-21T01:21:50;101050.91;;;9.05;100.00
72612;BME280;60655;52.182;4.474;2023-11-21T01:23:52;101052.94;;;8.96;100.00
72612;BME280;60655;52.182;4.474;2023-11-21T01:25:55;101057.41;;;8.96;100.00
72612;BME280;60655;52.182;4.474;2023-11-21T01:27:56;101056.00;;;9.00;100.00
72612;BME280;60655;52.182;4.474;2023-11-21T01:29:57;101056.44;;;9.10;100.00
72612;BME280;60655;52.182;4.474;2023-11-21T01:31:58;101058.91;;;9.18;100.00
72612;BME280;60655;52.182;4.474;2023-11-21T01:33:58;101068.47;;;9.12;100.00
72612;BME280;60655;52.182;4.474;2023-11-21T01:35:59;101065.22;;;9.17;100.00
72612;BME280;60655;52.182;4.474;2023-11-21T01:38:00;101070.94;;;9.27;100.00
72612;BME280;60655;52.182;4.474;2023-11-21T01:40:01;101075.63;;;9.32;100.00
72612;BME280;60655;52.182;4.474;2023-11-21T01:42:03;101071.97;;;9.39;100.00
72612;BME280;60655;52.182;4.474;2023-11-21T01:44:04;101069.31;;;9.33;100.00
72612;BME280;60655;52.182;4.474;2023-11-21T01:46:08;101062.38;;;9.19;100.00
72612;BME280;60655;52.182;4.474;2023-11-21T01:48:09;101081.75;;;9.32;100.00
72612;BME280;60655;52.182;4.474;2023-11-21T01:50:13;101078.88;;;9.27;100.00
72612;BME280;60655;52.182;4.474;2023-11-21T01:52:14;101084.22;;;9.40;100.00
72612;BME280;60655;52.182;4.474;2023-11-21T01:54:16;101085.84;;;9.55;100.00
72612;BME280;60655;52.182;4.474;2023-11-21T01:56:18;101087.50;;;9.62;100.00
72612;BME280;60655;52.182;4.474;2023-11-21T01:58:19;101074.22;;;9.56;100.00
72612;BME280;60655;52.182;4.474;2023-11-21T02:00:20;101097.06;;;9.43;100.00
72612;BME280;60655;52.182;4.474;2023-11-21T02:02:21;101086.06;;;9.60;100.00
72612;BME280;60655;52.182;4.474;2023-11-21T02:04:22;101094.41;;;9.57;100.00
72612;BME280;60655;52.182;4.474;2023-11-21T02:06:23;101093.63;;;9.63;100.00
72612;BME280;60655;52.182;4.474;2023-11-21T02:08:24;101092.59;;;9.57;100.00
72612;BME280;60655;52.182;4.474;2023-11-21T02:10:25;101094.84;;;9.60;100.00
72612;BME280;60655;52.182;4.474;2023-11-21T02:12:27;101100.97;;;9.67;100.00
72612;BME280;60655;52.182;4.474;2023-11-21T02:14:28;101097.69;;;9.65;100.00
72612;BME280;60655;52.182;4.474;2023-11-21T02:16:29;101102.81;;;9.67;100.00
72612;BME280;60655;52.182;4.474;2023-11-21T02:18:32;101094.03;;;9.66;100.00
72612;BME280;60655;52.182;4.474;2023-11-21T02:20:32;101101.78;;;9.74;100.00
72612;BME280;60655;52.182;4.474;2023-11-21T02:22:37;101095.47;;;9.69;100.00
72612;BME280;60655;52.182;4.474;2023-11-21T02:24:41;101116.88;;;9.87;100.00
72612;BME280;60655;52.182;4.474;2023-11-21T02:26:43;101109.13;;;9.92;100.00
72612;BME280;60655;52.182;4.474;2023-11-21T02:28:43;101109.94;;;9.99;100.00
72612;BME280;60655;52.182;4.474;2023-11-21T02:30:44;101105.06;;;10.03;100.00
72612;BME280;60655;52.182;4.474;2023-11-21T02:32:45;101104.03;;;10.10;100.00
72612;BME280;60655;52.182;4.474;2023-11-21T02:34:46;101098.47;;;10.12;100.00
72612;BME280;60655;52.182;4.474;2023-11-21T02:36:47;101106.28;;;10.20;100.00
72612;BME280;60655;52.182;4.474;2023-11-21T02:38:50;101098.72;;;10.10;100.00
72612;BME280;60655;52.182;4.474;2023-11-21T02:40:50;101104.19;;;10.15;100.00
72612;BME280;60655;52.182;4.474;2023-11-21T02:42:51;101099.75;;;10.09;100.00
72612;BME280;60655;52.182;4.474;2023-11-21T02:44:52;101094.19;;;10.11;100.00
72612;BME280;60655;52.182;4.474;2023-11-21T02:46:53;101102.81;;;10.06;100.00
72612;BME280;60655;52.182;4.474;2023-11-21T02:48:54;101102.81;;;9.93;100.00
72612;BME280;60655;52.182;4.474;2023-11-21T02:50:55;101104.44;;;9.88;100.00
72612;BME280;60655;52.182;4.474;2023-11-21T02:52:56;101103.63;;;9.80;100.00
72612;BME280;60655;52.182;4.474;2023-11-21T02:55:03;101101.81;;;9.81;100.00
72612;BME280;60655;52.182;4.474;2023-11-21T02:57:04;101106.66;;;9.84;100.00
72612;BME280;60655;52.182;4.474;2023-11-21T02:59:06;101107.09;;;9.74;100.00
72612;BME280;60655;52.182;4.474;2023-11-21T03:01:07;101110.16;;;9.78;100.00
72612;BME280;60655;52.182;4.474;2023-11-21T03:03:08;101115.28;;;9.79;100.00
72612;BME280;60655;52.182;4.474;2023-11-21T03:05:09;101118.13;;;9.78;100.00
72612;BME280;60655;52.182;4.474;2023-11-21T03:07:10;101115.88;;;9.81;100.00
72612;BME280;60655;52.182;4.474;2023-11-21T03:09:11;101113.22;;;9.75;100.00
72612;BME280;60655;52.182;4.474;2023-11-21T03:11:15;101098.53;;;9.66;100.00
72612;BME280;60655;52.182;4.474;2023-11-21T03:13:16;101113.03;;;9.76;100.00
72612;BME280;60655;52.182;4.474;2023-11-21T03:15:17;101105.88;;;9.70;100.00
72612;BME280;60655;52.182;4.474;2023-11-21T03:17:18;101117.09;;;9.66;100.00
72612;BME280;60655;52.182;4.474;2023-11-21T03:19:19;101114.00;;;9.56;100.00
72612;BME280;60655;52.182;4.474;2023-11-21T03:21:20;101118.09;;;9.58;100.00
72612;BME280;60655;52.182;4.474;2023-11-21T03:23:20;101133.19;;;9.64;100.00
72612;BME280;60655;52.182;4.474;2023-11-21T03:25:21;101126.69;;;9.67;100.00
72612;BME280;60655;52.182;4.474;2023-11-21T03:27:24;101134.63;;;9.67;100.00
72612;BME280;60655;52.182;4.474;2023-11-21T03:29:25;101130.75;;;9.63;100.00
72612;BME280;60655;52.182;4.474;2023-11-21T03:31:26;101137.31;;;9.80;100.00
72612;BME280;60655;52.182;4.474;2023-11-21T03:33:27;101140.16;;;9.72;100.00
72612;BME280;60655;52.182;4.474;2023-11-21T03:35:28;101146.69;;;9.82;100.00
72612;BME280;60655;52.182;4.474;2023-11-21T03:37:29;101144.84;;;9.83;100.00
72612;BME280;60655;52.182;4.474;2023-11-21T03:39:30;101160.19;;;9.81;100.00
72612;BME280;60655;52.182;4.474;2023-11-21T03:41:31;101144.25;;;9.81;100.00
72612;BME280;60655;52.182;4.474;2023-11-21T03:43:32;101139.56;;;9.76;100.00
72612;BME280;60655;52.182;4.474;2023-11-21T03:45:32;101159.13;;;9.82;100.00
72612;BME280;60655;52.182;4.474;2023-11-21T03:47:34;101146.28;;;9.79;100.00
72612;BME280;60655;52.182;4.474;2023-11-21T03:49:35;101163.63;;;9.95;100.00
72612;BME280;60655;52.182;4.474;2023-11-21T03:51:36;101157.09;;;9.97;100.00
72612;BME280;60655;52.182;4.474;2023-11-21T03:53:37;101159.94;;;9.89;100.00
72612;BME280;60655;52.182;4.474;2023-11-21T03:55:38;101152.81;;;9.96;100.00
72612;BME280;60655;52.182;4.474;2023-11-21T03:57:39;101178.75;;;9.94;100.00
72612;BME280;60655;52.182;4.474;2023-11-21T03:59:40;101178.75;;;10.01;100.00
72612;BME280;60655;52.182;4.474;2023-11-21T04:01:42;101182.03;;;10.09;100.00
72612;BME280;60655;52.182;4.474;2023-11-21T04:03:42;101174.69;;;10.05;100.00
72612;BME280;60655;52.182;4.474;2023-11-21T04:05:43;101190.38;;;10.13;100.00
72612;BME280;60655;52.182;4.474;2023-11-21T04:07:47;101176.69;;;10.16;100.00
72612;BME280;60655;52.182;4.474;2023-11-21T04:09:47;101185.50;;;10.10;100.00
72612;BME280;60655;52.182;4.474;2023-11-21T04:11:48;101192.81;;;10.14;100.00
72612;BME280;60655;52.182;4.474;2023-11-21T04:13:49;101180.59;;;10.00;100.00
72612;BME280;60655;52.182;4.474;2023-11-21T04:15:50;101189.75;;;10.11;100.00
72612;BME280;60655;52.182;4.474;2023-11-21T04:17:51;101200.38;;;10.18;100.00
72612;BME280;60655;52.182;4.474;2023-11-21T04:19:52;101193.69;;;10.22;100.00
72612;BME280;60655;52.182;4.474;2023-11-21T04:21:53;101203.69;;;10.20;100.00
72612;BME280;60655;52.182;4.474;2023-11-21T04:23:54;101202.22;;;10.17;100.00
72612;BME280;60655;52.182;4.474;2023-11-21T04:25:55;101208.78;;;10.21;100.00
72612;BME280;60655;52.182;4.474;2023-11-21T04:27:57;101206.34;;;10.20;100.00
72612;BME280;60655;52.182;4.474;2023-11-21T04:29:59;101218.38;;;10.09;100.00
72612;BME280;60655;52.182;4.474;2023-11-21T04:31:59;101216.94;;;10.06;100.00
72612;BME280;60655;52.182;4.474;2023-11-21T04:34:00;101214.88;;;9.95;100.00
72612;BME280;60655;52.182;4.474;2023-11-21T04:36:01;101216.28;;;9.91;100.00
72612;BME280;60655;52.182;4.474;2023-11-21T04:38:02;101219.94;;;9.83;100.00
72612;BME280;60655;52.182;4.474;2023-11-21T04:40:04;101225.06;;;9.85;100.00
72612;BME280;60655;52.182;4.474;2023-11-21T04:42:07;101222.59;;;9.83;100.00
72612;BME280;60655;52.182;4.474;2023-11-21T04:44:08;101233.81;;;9.66;100.00
72612;BME280;60655;52.182;4.474;2023-11-21T04:46:09;101233.97;;;9.58;100.00
72612;BME280;60655;52.182;4.474;2023-11-21T04:48:10;101240.31;;;9.63;100.00
72612;BME280;60655;52.182;4.474;2023-11-21T04:50:11;101246.66;;;9.69;100.00
72612;BME280;60655;52.182;4.474;2023-11-21T04:52:12;101247.25;;;9.51;100.00
72612;BME280;60655;52.182;4.474;2023-11-21T04:54:13;101243.78;;;9.51;100.00
72612;BME280;60655;52.182;4.474;2023-11-21T04:56:14;101234.28;;;9.28;100.00
72612;BME280;60655;52.182;4.474;2023-11-21T04:58:17;101245.53;;;9.37;100.00
72612;BME280;60655;52.182;4.474;2023-11-21T05:00:18;101245.56;;;9.43;100.00
72612;BME280;60655;52.182;4.474;2023-11-21T05:02:19;101258.75;;;9.24;100.00
72612;BME280;60655;52.182;4.474;2023-11-21T05:04:21;101269.59;;;9.35;100.00
72612;BME280;60655;52.182;4.474;2023-11-21T05:06:23;101260.75;;;9.15;100.00
72612;BME280;60655;52.182;4.474;2023-11-21T05:08:24;101267.09;;;9.27;100.00
72612;BME280;60655;52.182;4.474;2023-11-21T05:10:26;101269.41;;;9.37;100.00
72612;BME280;60655;52.182;4.474;2023-11-21T05:12:27;101277.75;;;9.34;100.00
72612;BME280;60655;52.182;4.474;2023-11-21T05:14:28;101283.66;;;9.36;100.00
72612;BME280;60655;52.182;4.474;2023-11-21T05:16:29;101281.41;;;9.33;100.00
72612;BME280;60655;52.182;4.474;2023-11-21T05:18:29;101282.84;;;9.35;100.00
72612;BME280;60655;52.182;4.474;2023-11-21T05:20:30;101285.13;;;9.38;100.00
72612;BME280;60655;52.182;4.474;2023-11-21T05:22:31;101294.34;;;9.49;100.00
72612;BME280;60655;52.182;4.474;2023-11-21T05:24:32;101294.97;;;9.51;100.00
72612;BME280;60655;52.182;4.474;2023-11-21T05:26:33;101300.72;;;9.61;100.00
72612;BME280;60655;52.182;4.474;2023-11-21T05:28:34;101294.38;;;9.62;100.00
72612;BME280;60655;52.182;4.474;2023-11-21T05:30:35;101299.91;;;9.67;100.00
72612;BME280;60655;52.182;4.474;2023-11-21T05:32:36;101296.25;;;9.68;100.00
72612;BME280;60655;52.182;4.474;2023-11-21T05:34:37;101301.53;;;9.62;100.00
72612;BME280;60655;52.182;4.474;2023-11-21T05:36:38;101308.91;;;9.66;100.00
72612;BME280;60655;52.182;4.474;2023-11-21T05:38:39;101295.44;;;9.68;100.00
72612;BME280;60655;52.182;4.474;2023-11-21T05:40:40;101299.34;;;9.72;100.00
72612;BME280;60655;52.182;4.474;2023-11-21T05:42:40;101306.09;;;9.81;100.00
72612;BME280;60655;52.182;4.474;2023-11-21T05:44:42;101292.78;;;9.68;100.00
72612;BME280;60655;52.182;4.474;2023-11-21T05:46:46;101311.16;;;9.69;100.00
72612;BME280;60655;52.182;4.474;2023-11-21T05:48:47;101295.66;;;9.73;100.00
72612;BME280;60655;52.182;4.474;2023-11-21T05:50:49;101322.84;;;9.81;100.00
72612;BME280;60655;52.182;4.474;2023-11-21T05:52:50;101313.44;;;9.79;100.00
72612;BME280;60655;52.182;4.474;2023-11-21T05:54:51;101320.38;;;9.87;100.00
72612;BME280;60655;52.182;4.474;2023-11-21T05:56:52;101325.50;;;9.81;100.00
72612;BME280;60655;52.182;4.474;2023-11-21T05:58:53;101330.34;;;9.71;100.00
72612;BME280;60655;52.182;4.474;2023-11-21T06:00:54;101336.50;;;9.78;100.00
72612;BME280;60655;52.182;4.474;2023-11-21T06:02:55;101343.03;;;9.76;100.00
72612;BME280;60655;52.182;4.474;2023-11-21T06:04:57;101341.19;;;9.76;100.00
72612;BME280;60655;52.182;4.474;2023-11-21T06:06:58;101340.97;;;9.71;100.00
72612;BME280;60655;52.182;4.474;2023-11-21T06:08:59;101345.06;;;9.74;100.00
72612;BME280;60655;52.182;4.474;2023-11-21T06:11:00;101348.13;;;9.77;100.00
72612;BME280;60655;52.182;4.474;2023-11-21T06:13:01;101339.72;;;9.67;100.00
72612;BME280;60655;52.182;4.474;2023-11-21T06:15:04;101343.00;;;9.69;100.00
72612;BME280;60655;52.182;4.474;2023-11-21T06:17:14;101351.72;;;9.63;100.00
72612;BME280;60655;52.182;4.474;2023-11-21T06:19:14;101360.91;;;9.61;100.00
72612;BME280;60655;52.182;4.474;2023-11-21T06:21:15;101362.78;;;9.67;100.00
72612;BME280;60655;52.182;4.474;2023-11-21T06:23:17;101362.09;;;9.52;100.00
72612;BME280;60655;52.182;4.474;2023-11-21T06:25:18;101365.75;;;9.51;100.00
72612;BME280;60655;52.182;4.474;2023-11-21T06:27:19;101375.94;;;9.54;100.00
72612;BME280;60655;52.182;4.474;2023-11-21T06:29:20;101373.91;;;9.49;100.00
72612;BME280;60655;52.182;4.474;2023-11-21T06:31:20;101374.00;;;9.69;100.00
72612;BME280;60655;52.182;4.474;2023-11-21T06:33:22;101373.03;;;9.76;100.00
72612;BME280;60655;52.182;4.474;2023-11-21T06:35:23;101375.25;;;9.73;100.00
72612;BME280;60655;52.182;4.474;2023-11-21T06:37:26;101383.03;;;9.74;100.00
72612;BME280;60655;52.182;4.474;2023-11-21T06:39:27;101384.69;;;9.89;100.00
72612;BME280;60655;52.182;4.474;2023-11-21T06:41:28;101396.13;;;9.89;100.00
72612;BME280;60655;52.182;4.474;2023-11-21T06:43:30;101397.38;;;9.93;100.00
72612;BME280;60655;52.182;4.474;2023-11-21T06:45:34;101398.97;;;9.88;100.00
72612;BME280;60655;52.182;4.474;2023-11-21T06:47:34;101407.59;;;9.96;100.00
72612;BME280;60655;52.182;4.474;2023-11-21T06:49:35;101398.63;;;9.97;100.00
72612;BME280;60655;52.182;4.474;2023-11-21T06:51:37;101404.75;;;9.98;100.00
72612;BME280;60655;52.182;4.474;2023-11-21T06:53:37;101419.88;;;10.04;100.00
72612;BME280;60655;52.182;4.474;2023-11-21T06:55:38;101413.53;;;9.98;100.00
72612;BME280;60655;52.182;4.474;2023-11-21T06:57:39;101401.31;;;10.04;100.00
72612;BME280;60655;52.182;4.474;2023-11-21T06:59:40;101420.47;;;9.99;100.00
72612;BME280;60655;52.182;4.474;2023-11-21T07:01:41;101424.78;;;10.00;100.00
72612;BME280;60655;52.182;4.474;2023-11-21T07:03:42;101430.28;;;9.99;100.00
72612;BME280;60655;52.182;4.474;2023-11-21T07:05:43;101429.06;;;10.01;100.00
72612;BME280;60655;52.182;4.474;2023-11-21T07:07:44;101438.28;;;10.05;100.00
72612;BME280;60655;52.182;4.474;2023-11-21T07:09:46;101435.44;;;10.13;100.00
72612;BME280;60655;52.182;4.474;2023-11-21T07:11:49;101426.03;;;10.11;100.00
72612;BME280;60655;52.182;4.474;2023-11-21T07:13:50;101440.53;;;10.15;100.00
72612;BME280;60655;52.182;4.474;2023-11-21T07:15:51;101438.91;;;10.14;100.00
72612;BME280;60655;52.182;4.474;2023-11-21T07:17:53;101446.94;;;10.21;100.00
72612;BME280;60655;52.182;4.474;2023-11-21T07:19:54;101443.63;;;10.19;100.00
72612;BME280;60655;52.182;4.474;2023-11-21T07:21:56;101453.44;;;10.18;100.00
72612;BME280;60655;52.182;4.474;2023-11-21T07:23:57;101458.94;;;10.16;100.00
72612;BME280;60655;52.182;4.474;2023-11-21T07:25:58;101464.94;;;10.25;100.00
72612;BME280;60655;52.182;4.474;2023-11-21T07:27:59;101479.88;;;10.33;100.00
72612;BME280;60655;52.182;4.474;2023-11-21T07:30:00;101480.44;;;10.22;100.00
72612;BME280;60655;52.182;4.474;2023-11-21T07:32:01;101487.38;;;10.23;100.00
72612;BME280;60655;52.182;4.474;2023-11-21T07:34:02;101488.81;;;10.25;100.00
72612;BME280;60655;52.182;4.474;2023-11-21T07:36:03;101484.47;;;10.18;100.00
72612;BME280;60655;52.182;4.474;2023-11-21T07:38:04;101483.03;;;10.15;100.00
72612;BME280;60655;52.182;4.474;2023-11-21T07:40:05;101480.75;;;10.05;100.00
72612;BME280;60655;52.182;4.474;2023-11-21T07:42:09;101487.31;;;10.09;100.00
72612;BME280;60655;52.182;4.474;2023-11-21T07:44:09;101480.16;;;10.10;100.00
72612;BME280;60655;52.182;4.474;2023-11-21T07:46:11;101492.31;;;10.26;100.00
72612;BME280;60655;52.182;4.474;2023-11-21T07:48:15;101486.22;;;10.32;100.00
72612;BME280;60655;52.182;4.474;2023-11-21T07:50:16;101492.94;;;10.28;100.00
72612;BME280;60655;52.182;4.474;2023-11-21T07:52:18;101496.00;;;10.31;100.00
72612;BME280;60655;52.182;4.474;2023-11-21T07:54:19;101502.72;;;10.27;100.00
72612;BME280;60655;52.182;4.474;2023-11-21T07:56:22;101502.09;;;10.25;100.00
72612;BME280;60655;52.182;4.474;2023-11-21T07:58:23;101501.09;;;10.26;100.00
72612;BME280;60655;52.182;4.474;2023-11-21T08:00:24;101517.69;;;10.41;100.00
72612;BME280;60655;52.182;4.474;2023-11-21T08:02:25;101510.66;;;10.21;100.00
72612;BME280;60655;52.182;4.474;2023-11-21T08:04:26;101524.00;;;10.40;100.00
72612;BME280;60655;52.182;4.474;2023-11-21T08:06:28;101516.28;;;10.45;100.00
72612;BME280;60655;52.182;4.474;2023-11-21T08:08:29;101537.59;;;10.59;100.00
72612;BME280;60655;52.182;4.474;2023-11-21T08:10:30;101531.19;;;10.46;100.00
72612;BME280;60655;52.182;4.474;2023-11-21T08:12:31;101528.53;;;10.46;100.00
72612;BME280;60655;52.182;4.474;2023-11-21T08:14:32;101538.53;;;10.44;100.00
72612;BME280;60655;52.182;4.474;2023-11-21T08:16:33;101528.94;;;10.43;100.00
72612;BME280;60655;52.182;4.474;2023-11-21T08:18:34;101542.25;;;10.50;100.00
72612;BME280;60655;52.182;4.474;2023-11-21T08:20:35;101535.69;;;10.46;100.00
72612;BME280;60655;52.182;4.474;2023-11-21T08:22:38;101544.47;;;10.46;100.00
72612;BME280;60655;52.182;4.474;2023-11-21T08:24:41;101548.53;;;10.42;100.00
72612;BME280;60655;52.182;4.474;2023-11-21T08:26:42;101552.66;;;10.45;100.00
72612;BME280;60655;52.182;4.474;2023-11-21T08:28:43;101534.25;;;10.43;100.00
72612;BME280;60655;52.182;4.474;2023-11-21T08:30:44;101547.22;;;10.60;100.00
72612;BME280;60655;52.182;4.474;2023-11-21T08:32:45;101548.81;;;10.54;100.00
72612;BME280;60655;52.182;4.474;2023-11-21T08:34:47;101546.34;;;10.53;100.00
72612;BME280;60655;52.182;4.474;2023-11-21T08:36:51;101548.22;;;10.59;100.00
72612;BME280;60655;52.182;4.474;2023-11-21T08:38:52;101544.56;;;10.60;100.00
72612;BME280;60655;52.182;4.474;2023-11-21T08:40:53;101544.34;;;10.61;100.00
72612;BME280;60655;52.182;4.474;2023-11-21T08:42:55;101550.72;;;10.73;100.00
72612;BME280;60655;52.182;4.474;2023-11-21T08:44:56;101550.91;;;10.72;100.00
72612;BME280;60655;52.182;4.474;2023-11-21T08:47:00;101552.53;;;10.60;100.00
72612;BME280;60655;52.182;4.474;2023-11-21T08:49:01;101562.75;;;10.63;100.00
72612;BME280;60655;52.182;4.474;2023-11-21T08:51:03;101561.34;;;10.67;100.00
72612;BME280;60655;52.182;4.474;2023-11-21T08:53:04;101569.28;;;10.60;100.00
72612;BME280;60655;52.182;4.474;2023-11-21T08:55:07;101563.75;;;10.55;100.00
72612;BME280;60655;52.182;4.474;2023-11-21T08:57:12;101567.44;;;10.61;100.00
72612;BME280;60655;52.182;4.474;2023-11-21T08:59:13;101578.09;;;10.67;100.00
72612;BME280;60655;52.182;4.474;2023-11-21T09:01:17;101588.13;;;10.72;100.00
72612;BME280;60655;52.182;4.474;2023-11-21T09:03:18;101588.53;;;10.75;100.00
72612;BME280;60655;52.182;4.474;2023-11-21T09:05:19;101588.16;;;10.78;100.00
72612;BME280;60655;52.182;4.474;2023-11-21T09:07:21;101588.50;;;10.69;100.00
72612;BME280;60655;52.182;4.474;2023-11-21T09:09:22;101591.81;;;10.77;100.00
72612;BME280;60655;52.182;4.474;2023-11-21T09:11:25;101592.84;;;10.76;100.00
72612;BME280;60655;52.182;4.474;2023-11-21T09:13:27;101586.47;;;10.71;100.00
72612;BME280;60655;52.182;4.474;2023-11-21T09:15:30;101596.09;;;10.72;100.00
72612;BME280;60655;52.182;4.474;2023-11-21T09:17:32;101598.53;;;10.67;100.00
72612;BME280;60655;52.182;4.474;2023-11-21T09:19:34;101612.22;;;10.64;100.00
72612;BME280;60655;52.182;4.474;2023-11-21T09:21:36;101616.13;;;10.74;100.00
72612;BME280;60655;52.182;4.474;2023-11-21T09:23:37;101617.38;;;10.78;100.00
72612;BME280;60655;52.182;4.474;2023-11-21T09:25:37;101615.34;;;10.80;100.00
72612;BME280;60655;52.182;4.474;2023-11-21T09:27:38;101623.53;;;10.79;100.00
72612;BME280;60655;52.182;4.474;2023-11-21T09:29:39;101624.16;;;10.81;100.00
72612;BME280;60655;52.182;4.474;2023-11-21T09:31:40;101631.25;;;10.74;100.00
72612;BME280;60655;52.182;4.474;2023-11-21T09:33:43;101637.03;;;10.84;100.00
72612;BME280;60655;52.182;4.474;2023-11-21T09:35:44;101636.84;;;10.86;100.00
72612;BME280;60655;52.182;4.474;2023-11-21T09:37:45;101634.38;;;10.84;100.00
72612;BME280;60655;52.182;4.474;2023-11-21T09:39:46;101646.84;;;10.83;100.00
72612;BME280;60655;52.182;4.474;2023-11-21T09:41:57;101660.59;;;10.94;100.00
72612;BME280;60655;52.182;4.474;2023-11-21T09:44:02;101674.28;;;10.91;100.00
72612;BME280;60655;52.182;4.474;2023-11-21T09:46:06;101674.88;;;10.86;100.00
72612;BME280;60655;52.182;4.474;2023-11-21T09:48:11;101686.34;;;10.87;100.00
72612;BME280;60655;52.182;4.474;2023-11-21T09:50:17;101679.13;;;10.80;100.00
72612;BME280;60655;52.182;4.474;2023-11-21T09:52:25;101688.06;;;10.66;100.00
72612;BME280;60655;52.182;4.474;2023-11-21T09:54:27;101695.81;;;10.61;100.00
72612;BME280;60655;52.182;4.474;2023-11-21T09:56:29;101701.56;;;10.65;100.00
72612;BME280;60655;52.182;4.474;2023-11-21T09:58:32;101722.81;;;10.65;100.00
72612;BME280;60655;52.182;4.474;2023-11-21T10:00:35;101715.03;;;10.63;100.00
72612;BME280;60655;52.182;4.474;2023-11-21T10:02:36;101720.16;;;10.71;100.00
72612;BME280;60655;52.182;4.474;2023-11-21T10:04:39;101716.47;;;10.66;100.00
72612;BME280;60655;52.182;4.474;2023-11-21T10:06:41;101724.09;;;10.75;100.00
72612;BME280;60655;52.182;4.474;2023-11-21T10:08:42;101727.13;;;10.72;100.00
72612;BME280;60655;52.182;4.474;2023-11-21T10:10:45;101736.91;;;10.65;100.00
72612;BME280;60655;52.182;4.474;2023-11-21T10:12:49;101740.84;;;10.76;100.00
72612;BME280;60655;52.182;4.474;2023-11-21T10:14:53;101737.81;;;10.79;100.00
72612;BME280;60655;52.182;4.474;2023-11-21T10:16:57;101732.88;;;10.76;100.00
72612;BME280;60655;52.182;4.474;2023-11-21T10:18:59;101737.13;;;10.70;100.00
72612;BME280;60655;52.182;4.474;2023-11-21T10:21:00;101752.06;;;10.71;100.00
72612;BME280;60655;52.182;4.474;2023-11-21T10:23:01;101753.25;;;10.69;100.00
72612;BME280;60655;52.182;4.474;2023-11-21T10:25:03;101757.09;;;10.60;100.00
72612;BME280;60655;52.182;4.474;2023-11-21T10:27:08;101759.41;;;10.69;100.00
72612;BME280;60655;52.182;4.474;2023-11-21T10:29:09;101748.44;;;10.51;100.00
72612;BME280;60655;52.182;4.474;2023-11-21T10:31:17;101759.84;;;10.45;100.00